Time;durP1;ratioP1;P1;durP2;ratioP2;P2;SDS_P1;SDS_P2;PMS_P1;PMS_P2;Temp;Humidity;BMP_temperature;BMP_pressure;BME280_temperature;BME280_humidity;BME280_pressure;Samples;Min_cycle;Max_cycle;Signal;HPM_P1;HPM_P2
2021/06/24 00:00:13;;;;;;;62.93;12.33;;;;;;;22.56;69.27;99676.53;129659;1093;114614;-68
2021/06/24 00:02:41;;;;;;;56.03;12.38;;;;;;;22.51;69.48;99671.16;129840;1092;22560;-68
2021/06/24 00:05:10;;;;;;;46.45;10.55;;;;;;;22.47;69.61;99674.95;129711;1092;114291;-65
2021/06/24 00:07:38;;;;;;;53.43;10.03;;;;;;;22.42;69.85;99669.58;129875;1093;23054;-68
2021/06/24 00:10:07;;;;;;;38.43;9.35;;;;;;;22.37;69.78;99669.75;129722;1093;114222;-67
2021/06/24 00:12:38;;;;;;;62.33;12.00;;;;;;;22.32;70.32;99669.95;129805;1093;22533;-67
2021/06/24 00:15:07;;;;;;;60.10;11.23;;;;;;;22.27;70.46;99665.39;129865;1092;22534;-67
2021/06/24 00:17:35;;;;;;;44.20;11.15;;;;;;;22.22;70.67;99660.00;129694;1093;114537;-67
2021/06/24 00:20:06;;;;;;;54.10;11.55;;;;;;;22.18;70.81;99667.39;129871;1093;22563;-67
2021/06/24 00:22:35;;;;;;;58.03;13.60;;;;;;;22.16;70.83;99667.72;129701;1093;114346;-67
2021/06/24 00:25:04;;;;;;;50.28;11.40;;;;;;;22.14;70.74;99664.45;129868;1093;22593;-68
2021/06/24 00:27:32;;;;;;;60.75;12.35;;;;;;;22.15;70.62;99663.31;129822;1093;22526;-68
2021/06/24 00:30:00;;;;;;;52.75;11.13;;;;;;;22.17;70.52;99661.02;129693;1093;114263;-68
2021/06/24 00:32:29;;;;;;;64.43;12.00;;;;;;;22.20;70.56;99665.91;129773;1092;23135;-68
2021/06/24 00:35:00;;;;;;;56.03;12.43;;;;;;;22.23;70.74;99661.64;129743;1093;114613;-67
2021/06/24 00:37:29;;;;;;;55.25;12.63;;;;;;;22.28;70.76;99657.88;129841;1092;22574;-68
2021/06/24 00:39:59;;;;;;;53.98;13.60;;;;;;;22.33;70.58;99661.30;128092;1093;22827;-67
2021/06/24 00:42:29;;;;;;;62.75;13.53;;;;;;;22.39;70.73;99659.13;129636;1093;114286;-67
2021/06/24 00:44:58;;;;;;;46.35;12.73;;;;;;;22.43;70.48;99652.59;129829;1093;22582;-67
2021/06/24 00:47:26;;;;;;;54.33;12.03;;;;;;;22.49;70.39;99656.00;129719;1093;114150;-67
2021/06/24 00:49:55;;;;;;;51.78;11.43;;;;;;;22.50;69.95;99652.90;129769;1093;23525;-67
2021/06/24 00:52:23;;;;;;;53.40;12.60;;;;;;;22.52;69.87;99658.09;129734;1092;115327;-67
2021/06/24 00:54:52;;;;;;;42.80;11.53;;;;;;;22.52;69.95;99655.31;129782;1093;23314;-67
2021/06/24 00:57:21;;;;;;;56.80;12.73;;;;;;;22.52;69.93;99653.34;129837;1093;22509;-68
2021/06/24 00:59:49;;;;;;;50.93;13.13;;;;;;;22.52;70.49;99652.53;129708;1092;114208;-68
2021/06/24 01:02:18;;;;;;;63.28;12.05;;;;;;;22.54;70.92;99651.06;129809;1093;22546;-68
2021/06/24 01:04:47;;;;;;;63.08;14.50;;;;;;;22.57;71.04;99652.36;129665;1092;114554;-68
2021/06/24 01:07:15;;;;;;;59.15;12.98;;;;;;;22.60;71.13;99654.47;129829;1092;22637;-67
2021/06/24 01:10:01;;;;;;;53.10;12.73;;;;;;;22.63;70.98;99653.81;129765;1093;22572;-68
2021/06/24 01:12:32;;;;;;;63.35;12.13;;;;;;;22.68;70.94;99664.71;129686;1093;114611;-68
2021/06/24 01:15:03;;;;;;;60.95;11.43;;;;;;;22.72;70.66;99665.68;129815;1093;23105;-68
2021/06/24 01:17:35;;;;;;;48.15;12.03;;;;;;;22.77;70.65;99665.53;129725;1093;114479;-68
2021/06/24 01:20:05;;;;;;;53.50;12.70;;;;;;;22.80;70.50;99658.46;129835;1092;22597;-67
2021/06/24 01:22:34;;;;;;;57.08;14.73;;;;;;;22.84;70.39;99659.42;129738;1093;114171;-68
2021/06/24 01:25:05;;;;;;;62.80;12.93;;;;;;;22.87;70.49;99654.02;129836;1093;22693;-68
2021/06/24 01:27:34;;;;;;;65.83;11.98;;;;;;;22.90;70.30;99658.91;129809;1092;22608;-68
2021/06/24 01:30:03;;;;;;;63.53;12.78;;;;;;;22.93;70.31;99657.42;129719;1092;114369;-68
2021/06/24 01:32:33;;;;;;;53.33;11.78;;;;;;;22.95;70.20;99660.66;129766;1092;22559;-68
2021/06/24 01:35:02;;;;;;;53.25;11.98;;;;;;;22.98;70.04;99664.73;129712;1093;114305;-68
2021/06/24 01:39:04;;;;;;;76.08;13.48;;;;;;;23.00;69.85;99663.25;125694;1090;25967;-67
2021/06/24 01:41:36;;;;;;;61.98;12.18;;;;;;;23.04;69.81;99666.99;129949;1090;114044;-67
2021/06/24 01:44:09;;;;;;;75.20;14.95;;;;;;;23.06;69.49;99653.58;129888;1093;22926;-67
2021/06/24 01:46:37;;;;;;;53.95;12.18;;;;;;;23.08;69.78;99661.58;129759;1092;114075;-67
2021/06/24 01:49:06;;;;;;;59.50;13.20;;;;;;;23.07;69.42;99659.95;130042;1093;22542;-67
2021/06/24 01:51:34;;;;;;;68.45;14.08;;;;;;;23.06;69.30;99652.77;130091;1093;23181;-67
2021/06/24 01:54:02;;;;;;;70.23;13.93;;;;;;;23.05;69.22;99659.47;129923;1093;113481;-67
2021/06/24 01:56:31;;;;;;;58.48;12.20;;;;;;;23.05;69.04;99662.25;130002;1093;22528;-67
2021/06/24 01:58:59;;;;;;;60.85;12.55;;;;;;;23.03;69.10;99657.02;129939;1093;113824;-67
2021/06/24 02:01:36;;;;;;;;;;;;;;;23.02;69.02;99655.39;129885;1092;22543;-67
2021/06/24 02:04:14;;;;;;;86.20;13.25;;;;;;;23.00;69.18;99663.25;129972;1093;101545;-67
2021/06/24 02:06:44;;;;;;;69.65;13.53;;;;;;;22.97;68.83;99654.77;129864;1093;22598;-67
2021/06/24 02:09:28;;;;;;;62.80;13.18;;;;;;;22.95;69.14;99657.06;129865;1093;22529;-67
2021/06/24 02:12:01;;;;;;;62.85;12.63;;;;;;;22.94;69.08;99663.80;129899;1093;114476;-68
2021/06/24 02:14:39;;;;;;;60.03;12.75;;;;;;;22.90;69.05;99656.13;129777;1093;23253;-68
2021/06/24 02:17:08;;;;;;;66.50;14.93;;;;;;;22.88;68.69;99666.77;129982;1093;113940;-67
2021/06/24 02:19:37;;;;;;;64.90;13.58;;;;;;;22.87;68.79;99673.47;129853;1093;22634;-68
2021/06/24 02:22:18;;;;;;;68.80;14.58;;;;;;;22.85;68.76;99667.43;129753;1093;114060;-67
2021/06/24 02:24:56;;;;;;;59.48;11.90;;;;;;;22.85;68.68;99672.98;129830;1092;22562;-67
2021/06/24 02:27:24;;;;;;;74.80;14.38;;;;;;;22.83;68.73;99672.50;129873;1092;22569;-67
2021/06/24 02:30:22;;;;;;;69.68;13.85;;;;;;;22.84;68.63;99671.36;129864;1093;113858;-67
2021/06/24 02:32:52;;;;;;;57.90;12.28;;;;;;;22.85;68.55;99672.98;129880;1093;22619;-67
2021/06/24 02:35:22;;;;;;;62.28;12.88;;;;;;;22.87;68.65;99665.13;129718;1092;114336;-67
2021/06/24 02:38:00;;;;;;;58.73;13.18;;;;;;;22.90;68.25;99666.43;129818;1092;22597;-67
2021/06/24 02:40:29;;;;;;;67.58;13.65;;;;;;;22.95;67.94;99662.63;129891;1092;114561;-67
2021/06/24 02:42:58;;;;;;;67.80;12.33;;;;;;;22.97;67.90;99672.25;129992;1093;22549;-67
2021/06/24 02:45:29;;;;;;;62.23;13.50;;;;;;;23.02;67.52;99668.48;129812;1093;23369;-68
2021/06/24 02:47:58;;;;;;;59.13;11.75;;;;;;;23.06;67.19;99661.91;129948;1092;113313;-68
2021/06/24 02:50:26;;;;;;;69.58;13.95;;;;;;;23.09;67.16;99671.52;129868;1093;22993;-67
2021/06/24 02:53:01;;;;;;;65.93;14.58;;;;;;;23.11;66.90;99675.59;129695;1092;113803;-67
2021/06/24 02:55:30;;;;;;;67.13;11.88;;;;;;;23.12;66.71;99674.44;129859;1092;22565;-68
2021/06/24 02:57:59;;;;;;;61.60;12.08;;;;;;;23.16;65.66;99672.63;129817;1093;22539;-67
2021/06/24 03:00:46;;;;;;;53.23;11.88;;;;;;;23.23;65.26;99683.19;129747;1091;113607;-68
2021/06/24 03:03:26;;;;;;;54.33;10.28;;;;;;;23.31;64.86;99675.95;129853;1093;22569;-67
2021/06/24 03:06:03;;;;;;;64.73;12.10;;;;;;;23.38;65.09;99677.02;129761;1092;114033;-67
2021/06/24 03:08:32;;;;;;;49.70;10.93;;;;;;;23.45;65.17;99674.53;129812;1090;22742;-67
2021/06/24 03:11:02;;;;;;;66.80;10.95;;;;;;;23.53;64.81;99684.78;129740;1092;114187;-67
2021/06/24 03:13:33;;;;;;;49.55;10.65;;;;;;;23.58;64.72;99681.80;129828;1093;22549;-67
2021/06/24 03:16:04;;;;;;;61.70;12.35;;;;;;;23.65;64.57;99681.27;129667;1093;22590;-68
2021/06/24 03:18:32;;;;;;;57.83;12.43;;;;;;;23.72;64.12;99683.48;129662;1093;114355;-68
2021/06/24 03:21:03;;;;;;;57.88;11.73;;;;;;;23.79;63.84;99678.20;129868;1093;23126;-67
2021/06/24 03:23:34;;;;;;;61.75;11.28;;;;;;;23.84;63.73;99677.96;129719;1092;114057;-67
2021/06/24 03:26:02;;;;;;;50.90;9.93;;;;;;;23.89;63.99;99674.98;128163;1093;22865;-69
2021/06/24 03:28:33;;;;;;;49.33;10.05;;;;;;;23.94;63.71;99677.55;129659;1093;114165;-67
2021/06/24 03:31:04;;;;;;;62.75;13.18;;;;;;;23.98;63.65;99679.29;129808;1093;22646;-67
2021/06/24 03:33:35;;;;;;;45.43;11.28;;;;;;;24.04;63.60;99688.25;129711;1092;22565;-68
2021/06/24 03:36:05;;;;;;;58.30;11.48;;;;;;;24.08;62.92;99678.06;129741;1092;114036;-68
2021/06/24 03:38:33;;;;;;;45.90;11.30;;;;;;;24.14;62.35;99673.88;129797;1091;22706;-68
2021/06/24 03:41:03;;;;;;;47.83;10.70;;;;;;;24.20;62.44;99671.70;129779;1093;114602;-68
2021/06/24 03:43:32;;;;;;;49.38;10.45;;;;;;;24.26;61.51;99660.01;129811;1093;22570;-68
2021/06/24 03:46:00;;;;;;;48.28;10.13;;;;;;;24.34;61.76;99661.08;129824;1093;22572;-68
2021/06/24 03:48:34;;;;;;;140.78;16.75;;;;;;;24.41;61.38;99666.06;129726;1092;114039;-67
2021/06/24 03:51:12;;;;;;;64.25;11.58;;;;;;;24.48;61.48;99661.56;129801;1093;22524;-68
2021/06/24 03:53:40;;;;;;;56.30;11.03;;;;;;;24.54;61.71;99657.36;129703;1093;114047;-68
2021/06/24 03:56:10;;;;;;;70.40;13.40;;;;;;;24.62;61.30;99659.23;129860;1092;22558;-67
2021/06/24 03:58:42;;;;;;;55.25;11.25;;;;;;;24.69;61.07;99655.86;129666;1092;114077;-68
2021/06/24 04:01:12;;;;;;;52.18;10.10;;;;;;;24.77;60.00;99654.13;129834;1093;22615;-68
2021/06/24 04:03:41;;;;;;;51.08;10.33;;;;;;;24.85;59.20;99659.56;129827;1092;22569;-68
2021/06/24 04:06:12;;;;;;;41.00;9.25;;;;;;;24.92;59.22;99654.23;129732;1093;113922;-68
2021/06/24 04:08:41;;;;;;;49.63;10.30;;;;;;;25.02;58.67;99669.69;129797;1093;23409;-68
2021/06/24 04:11:24;;;;;;;39.80;10.90;;;;;;;25.09;58.01;99663.54;129751;1093;113970;-68
2021/06/24 04:13:59;;;;;;;48.78;9.73;;;;;;;25.16;58.48;99670.13;129835;1093;23358;-68
2021/06/24 04:16:46;;;;;;;46.60;10.18;;;;;;;25.24;57.43;99671.17;129720;1093;114530;-68
2021/06/24 04:19:17;;;;;;;39.15;9.90;;;;;;;25.31;58.03;99663.82;129808;1092;23303;-68
2021/06/24 04:21:45;;;;;;;42.73;10.55;;;;;;;25.39;57.95;99664.86;129826;1091;23065;-68
2021/06/24 04:24:14;;;;;;;40.73;10.35;;;;;;;25.47;58.17;99663.08;129732;1092;115760;-68
2021/06/24 04:26:42;;;;;;;49.03;17.78;;;;;;;25.52;57.12;99663.66;129848;1092;22533;-68
2021/06/24 04:29:14;;;;;;;69.98;31.28;;;;;;;25.59;57.12;99671.41;129740;1093;114306;-68
2021/06/24 04:31:43;;;;;;;53.65;15.03;;;;;;;25.64;57.71;99669.22;129816;1093;23795;-68
2021/06/24 04:34:11;;;;;;;37.30;11.03;;;;;;;25.68;57.01;99672.90;129813;1093;22643;-68
2021/06/24 04:37:04;;;;;;;45.18;9.88;;;;;;;25.72;56.47;99675.80;129760;1093;113765;-68
2021/06/24 04:39:34;;;;;;;49.03;10.10;;;;;;;25.74;56.42;99665.09;129845;1092;22637;-68
2021/06/24 04:42:18;;;;;;;42.30;11.03;;;;;;;25.77;57.39;99661.59;129919;1093;113942;-68
2021/06/24 04:45:06;;;;;;;39.55;9.50;;;;;;;25.80;57.04;99663.69;129950;1092;23295;-68
2021/06/24 04:47:41;;;;;;;41.15;11.30;;;;;;;25.84;56.09;99670.16;129706;1093;113828;-68
2021/06/24 04:50:10;;;;;;;40.05;10.68;;;;;;;25.88;57.01;99673.87;129829;1092;23948;-68
2021/06/24 04:52:54;;;;;;;46.23;11.45;;;;;;;25.93;56.96;99670.83;129912;1093;114687;-68
2021/06/24 04:55:43;;;;;;;49.65;8.63;;;;;;;26.01;56.91;99666.23;129771;1093;22578;-68
2021/06/24 04:58:17;;;;;;;48.68;10.95;;;;;;;26.09;54.73;99670.86;130042;1092;22493;-67
2021/06/24 05:01:04;;;;;;;59.33;11.80;;;;;;;26.19;53.33;99669.52;129687;1092;113732;-67
2021/06/24 05:03:51;;;;;;;;;;;;;;;26.27;52.06;99666.53;130103;1093;22622;-68
2021/06/24 05:06:20;;;;;;;38.48;8.18;;;;;;;26.32;51.85;99668.30;127571;1093;99466;-68
2021/06/24 05:08:48;;;;;;;32.90;7.98;;;;;;;26.35;52.20;99675.96;125272;1092;24448;-67
2021/06/24 05:11:17;;;;;;;36.95;7.65;;;;;;;26.38;51.45;99672.45;129859;1092;113987;-69
2021/06/24 05:13:46;;;;;;;121.30;12.78;;;;;;;26.40;50.88;99667.33;130066;1093;22538;-69
2021/06/24 05:16:14;;;;;;;57.48;8.85;;;;;;;26.44;50.28;99672.98;129816;1093;22560;-68
2021/06/24 05:18:43;;;;;;;72.83;9.98;;;;;;;26.46;51.00;99665.05;129973;1092;113889;-68
2021/06/24 05:21:11;;;;;;;35.80;7.70;;;;;;;26.47;51.05;99667.48;130067;1092;22582;-68
2021/06/24 05:23:44;;;;;;;50.20;8.38;;;;;;;26.49;50.61;99672.72;129879;1092;113931;-68
2021/06/24 05:26:12;;;;;;;64.60;10.70;;;;;;;26.52;50.43;99672.81;129855;1092;22535;-69
2021/06/24 05:28:41;;;;;;;38.70;8.60;;;;;;;26.61;50.79;99664.23;129886;1092;114284;-68
2021/06/24 05:31:10;;;;;;;34.58;8.65;;;;;;;26.73;51.29;99664.95;129875;1092;22535;-68
2021/06/24 05:33:38;;;;;;;52.60;9.73;;;;;;;26.83;49.96;99669.19;130003;1092;23190;-68
2021/06/24 05:36:07;;;;;;;35.43;8.70;;;;;;;26.91;48.72;99668.17;128099;1092;113771;-63
2021/06/24 05:38:36;;;;;;;40.13;10.33;;;;;;;26.96;49.31;99673.53;129942;1093;22561;-64
2021/06/24 05:41:05;;;;;;;37.43;8.98;;;;;;;26.98;49.60;99668.36;129887;1093;113990;-64
2021/06/24 05:43:33;;;;;;;47.28;9.63;;;;;;;27.00;50.22;99670.79;129940;1093;22544;-64
2021/06/24 05:46:02;;;;;;;44.40;9.43;;;;;;;27.01;50.17;99673.23;130025;1092;23287;-64
2021/06/24 05:48:33;;;;;;;43.05;10.15;;;;;;;27.05;50.36;99670.52;129837;1093;113790;-65
2021/06/24 05:51:01;;;;;;;46.28;10.73;;;;;;;27.11;50.61;99666.27;130004;1093;22576;-64
2021/06/24 05:53:30;;;;;;;45.83;10.85;;;;;;;27.19;50.35;99665.25;129687;1092;114228;-64
2021/06/24 05:55:59;;;;;;;35.55;10.50;;;;;;;27.27;50.77;99667.02;130066;1093;22493;-64
2021/06/24 05:58:31;;;;;;;35.55;11.28;;;;;;;27.36;50.88;99669.62;130056;1093;23228;-67
2021/06/24 06:00:59;;;;;;;35.63;10.27;;;;;;;27.45;50.51;99673.81;129696;1093;113948;-67
2021/06/24 06:03:28;;;;;;;47.35;10.45;;;;;;;27.56;49.88;99673.22;129975;1093;22581;-69
2021/06/24 06:05:56;;;;;;;37.70;9.45;;;;;;;27.60;49.22;99669.36;129898;1093;114256;-68
2021/06/24 06:08:27;;;;;;;48.05;9.75;;;;;;;27.64;49.12;99675.85;129982;1093;22966;-69
2021/06/24 06:10:56;;;;;;;42.10;9.05;;;;;;;27.65;49.40;99671.06;129864;1092;114842;-68
2021/06/24 06:13:27;;;;;;;45.88;11.63;;;;;;;27.66;49.72;99675.48;129972;1093;22530;-68
2021/06/24 06:15:56;;;;;;;41.05;9.53;;;;;;;27.67;49.45;99677.92;129834;1092;22564;-68
2021/06/24 06:18:25;;;;;;;45.90;9.75;;;;;;;27.68;49.80;99673.94;129917;1092;113960;-67
2021/06/24 06:20:55;;;;;;;66.05;10.50;;;;;;;27.71;50.21;99675.98;129817;1092;22594;-68
2021/06/24 06:23:25;;;;;;;35.00;9.80;;;;;;;27.73;50.26;99676.42;129903;1092;114347;-68
2021/06/24 06:25:53;;;;;;;52.00;9.33;;;;;;;27.75;49.53;99674.07;129877;1093;22530;-68
2021/06/24 06:28:22;;;;;;;65.18;13.03;;;;;;;27.77;49.28;99668.91;129846;1093;22567;-68
2021/06/24 06:30:51;;;;;;;38.23;8.60;;;;;;;27.80;48.99;99673.78;129879;1093;114503;-68
2021/06/24 06:33:20;;;;;;;39.10;9.10;;;;;;;27.83;49.32;99665.83;129929;1092;22530;-67
2021/06/24 06:35:50;;;;;;;29.23;6.73;;;;;;;27.85;49.98;99655.04;128382;1093;114282;-67
2021/06/24 06:38:19;;;;;;;36.10;7.90;;;;;;;27.86;49.79;99657.47;125402;1093;27200;-66
2021/06/24 06:40:49;;;;;;;33.83;9.37;;;;;;;27.90;49.08;99654.75;129945;1093;114047;-67
2021/06/24 06:43:19;;;;;;;38.68;8.58;;;;;;;27.94;49.19;99661.23;130062;1093;22572;-68
2021/06/24 06:45:48;;;;;;;48.88;10.15;;;;;;;27.98;49.52;99656.52;129852;1093;22590;-67
2021/06/24 06:48:17;;;;;;;39.08;9.00;;;;;;;28.01;49.82;99650.16;129989;1093;114101;-67
2021/06/24 06:50:45;;;;;;;41.40;8.55;;;;;;;28.03;49.91;99648.61;129806;1093;22567;-67
2021/06/24 06:53:14;;;;;;;51.20;8.30;;;;;;;28.07;49.20;99652.30;129783;1093;114268;-67
2021/06/24 06:55:42;;;;;;;41.55;8.53;;;;;;;28.07;48.72;99640.27;129968;1093;23486;-67
2021/06/24 06:58:11;;;;;;;32.33;8.40;;;;;;;28.06;49.11;99642.27;130017;1092;22545;-67
2021/06/24 07:00:39;;;;;;;43.95;8.83;;;;;;;28.04;49.54;99644.63;129913;1093;113922;-67
2021/06/24 07:03:07;;;;;;;35.88;9.78;;;;;;;28.02;49.25;99638.58;130077;1092;23112;-67
2021/06/24 07:05:36;;;;;;;33.63;9.08;;;;;;;28.01;49.66;99639.76;129991;1092;113970;-67
2021/06/24 07:08:05;;;;;;;47.35;9.70;;;;;;;28.00;50.14;99637.33;130078;1093;22539;-68
2021/06/24 07:10:33;;;;;;;38.38;8.85;;;;;;;27.99;50.33;99638.54;129911;1093;22620;-67
2021/06/24 07:13:02;;;;;;;44.83;10.30;;;;;;;28.00;50.18;99642.94;129934;1092;113103;-67
2021/06/24 07:15:31;;;;;;;38.43;7.98;;;;;;;28.03;50.31;99647.80;130062;1092;22531;-67
2021/06/24 07:18:00;;;;;;;42.25;9.00;;;;;;;28.05;50.58;99656.64;129919;1093;114171;-67
2021/06/24 07:20:28;;;;;;;36.63;9.48;;;;;;;28.08;50.58;99653.11;129835;1093;22569;-67
2021/06/24 07:22:56;;;;;;;44.43;8.60;;;;;;;28.12;50.91;99656.79;129894;1093;115229;-67
2021/06/24 07:25:25;;;;;;;42.43;10.28;;;;;;;28.14;50.41;99658.02;130054;1093;22512;-67
2021/06/24 07:27:54;;;;;;;38.43;9.13;;;;;;;28.15;50.55;99662.44;130062;1092;22673;-67
2021/06/24 07:30:23;;;;;;;40.20;9.35;;;;;;;28.16;49.85;99663.25;129985;1092;114026;-67
2021/06/24 07:32:54;;;;;;;46.08;8.93;;;;;;;28.18;50.23;99660.08;130061;1092;22565;-67
2021/06/24 07:35:23;;;;;;;42.30;9.30;;;;;;;28.20;50.21;99654.95;129904;1093;114115;-67
2021/06/24 07:37:53;;;;;;;47.45;9.48;;;;;;;28.25;50.66;99668.66;130010;1092;22572;-67
2021/06/24 07:40:21;;;;;;;36.98;8.83;;;;;;;28.31;50.45;99667.15;127647;1093;22770;-68
2021/06/24 07:42:50;;;;;;;32.98;7.83;;;;;;;28.35;49.30;99674.45;129651;1092;113930;-69
2021/06/24 07:45:19;;;;;;;42.50;10.25;;;;;;;28.40;49.62;99673.34;129881;1093;22711;-69
2021/06/24 07:47:47;;;;;;;38.38;9.23;;;;;;;28.43;49.90;99672.56;129915;1093;114524;-69
2021/06/24 07:50:15;;;;;;;43.03;10.18;;;;;;;28.47;49.99;99674.25;129856;1092;22502;-70
2021/06/24 07:52:44;;;;;;;35.45;7.98;;;;;;;28.51;49.38;99679.93;129983;1093;114214;-69
2021/06/24 07:55:12;;;;;;;33.80;7.95;;;;;;;28.57;48.63;99677.63;130038;1093;22650;-70
2021/06/24 07:57:42;;;;;;;46.40;8.90;;;;;;;28.59;48.55;99676.05;129991;1093;27357;-70
2021/06/24 08:00:12;;;;;;;28.35;7.70;;;;;;;28.62;49.78;99672.50;129915;1093;113937;-69
2021/06/24 08:02:41;;;;;;;36.38;8.23;;;;;;;28.67;49.30;99669.39;130016;1093;22612;-69
2021/06/24 08:05:11;;;;;;;28.18;7.68;;;;;;;28.70;48.15;99671.45;129700;1093;114112;-70
2021/06/24 08:07:44;;;;;;;32.18;7.78;;;;;;;28.72;48.48;99668.24;129967;1093;22525;-70
2021/06/24 08:10:13;;;;;;;35.13;7.70;;;;;;;28.75;47.54;99675.91;130039;1093;23530;-71
2021/06/24 08:12:42;;;;;;;29.78;6.83;;;;;;;28.76;48.10;99672.73;129973;1093;114066;-70
2021/06/24 08:15:12;;;;;;;40.23;9.18;;;;;;;28.79;47.96;99674.82;130020;1092;22534;-73
2021/06/24 08:17:41;;;;;;;30.43;7.25;;;;;;;28.84;48.05;99673.70;129746;1092;114056;-73
2021/06/24 08:20:10;;;;;;;39.80;8.88;;;;;;;28.86;47.55;99671.30;129965;1093;22655;-71
2021/06/24 08:22:39;;;;;;;41.35;8.10;;;;;;;28.91;47.67;99670.18;129853;1092;22588;-71
2021/06/24 08:25:08;;;;;;;34.43;6.95;;;;;;;28.94;47.06;99669.44;129903;1093;114035;-71
2021/06/24 08:27:38;;;;;;;38.93;8.20;;;;;;;28.98;46.50;99676.73;130067;1093;22792;-72
2021/06/24 08:30:08;;;;;;;29.95;7.60;;;;;;;29.00;46.61;99674.33;129871;1092;114244;-71
2021/06/24 08:32:37;;;;;;;26.90;6.80;;;;;;;29.03;46.42;99669.97;129851;1093;22565;-71
2021/06/24 08:35:07;;;;;;;28.65;6.95;;;;;;;29.06;46.54;99672.83;129692;1092;114158;-70
2021/06/24 08:37:37;;;;;;;34.75;7.70;;;;;;;29.08;46.81;99675.26;129862;1092;23231;-70
2021/06/24 08:40:06;;;;;;;29.13;8.13;;;;;;;29.12;47.19;99673.32;129994;1093;22541;-70
2021/06/24 08:42:34;;;;;;;52.00;9.18;;;;;;;29.15;47.38;99676.16;129919;1093;114080;-71
2021/06/24 08:45:05;;;;;;;39.20;7.80;;;;;;;29.19;47.10;99677.03;130002;1093;22655;-68
2021/06/24 08:47:37;;;;;;;35.35;8.50;;;;;;;29.23;46.90;99679.89;129935;1092;113995;-68
2021/06/24 08:50:06;;;;;;;30.53;7.15;;;;;;;29.27;47.49;99682.75;129805;1093;23393;-68
2021/06/24 08:52:34;;;;;;;36.60;8.45;;;;;;;29.31;47.30;99677.98;130042;1093;22519;-64
2021/06/24 08:55:04;;;;;;;65.68;10.08;;;;;;;29.35;47.22;99679.66;129733;1092;113807;-68
2021/06/24 08:57:33;;;;;;;30.85;7.00;;;;;;;29.37;46.89;99668.86;129843;1093;22539;-68
2021/06/24 09:00:06;;;;;;;25.80;6.63;;;;;;;29.41;46.75;99672.56;129882;1093;114807;-67
2021/06/24 09:02:37;;;;;;;28.95;7.60;;;;;;;29.43;47.77;99675.77;130012;1093;22581;-68
2021/06/24 09:05:07;;;;;;;27.58;7.70;;;;;;;29.49;47.68;99670.64;129834;1093;114471;-68
2021/06/24 09:07:53;;;;;;;34.00;7.75;;;;;;;29.53;47.48;99674.31;129880;1093;22519;-68
2021/06/24 09:10:23;;;;;;;28.07;7.07;;;;;;;29.61;47.85;99664.78;129955;1093;22528;-70
2021/06/24 09:12:52;;;;;;;24.28;6.45;;;;;;;29.71;47.07;99666.94;129889;1092;113938;-69
2021/06/24 09:15:24;;;;;;;35.63;6.93;;;;;;;29.83;46.00;99663.05;129667;1093;22546;-74
2021/06/24 09:17:53;;;;;;;32.05;8.45;;;;;;;29.90;46.56;99666.73;129737;1093;114025;-73
2021/06/24 09:20:25;;;;;;;32.28;8.35;;;;;;;29.96;46.59;99666.40;130032;1092;23837;-75
2021/06/24 09:23:08;;;;;;;26.95;7.13;;;;;;;29.98;46.62;99669.67;129686;1093;115055;-74
2021/06/24 09:25:41;;;;;;;33.23;8.05;;;;;;;29.99;46.21;99669.28;129858;1092;22588;-75
2021/06/24 09:28:10;;;;;;;31.58;6.75;;;;;;;30.01;46.67;99668.91;129844;1092;22562;-75
2021/06/24 09:30:44;;;;;;;38.83;7.08;;;;;;;30.00;47.01;99664.48;129751;1093;114528;-74
2021/06/24 09:33:17;;;;;;;31.23;6.58;;;;;;;30.00;47.97;99665.28;129828;1093;22553;-75
2021/06/24 09:35:56;;;;;;;21.45;6.88;;;;;;;30.01;47.87;99671.72;129744;1092;113992;-75
2021/06/24 09:38:25;;;;;;;23.25;6.20;;;;;;;30.01;47.64;99666.09;129986;1092;22529;-74
2021/06/24 09:40:57;;;;;;;29.45;6.83;;;;;;;30.00;47.35;99665.28;129907;1092;113971;-75
2021/06/24 09:43:35;;;;;;;27.13;7.28;;;;;;;30.00;47.27;99661.67;129957;1092;22621;-75
2021/06/24 09:46:06;;;;;;;26.15;7.13;;;;;;;29.99;47.48;99657.23;128301;1093;26255;-69
2021/06/24 09:48:36;;;;;;;28.18;7.25;;;;;;;30.00;48.29;99661.67;125011;1092;114015;-68
2021/06/24 09:51:09;;;;;;;29.63;6.80;;;;;;;30.01;47.47;99649.23;129881;1093;22545;-69
2021/06/24 09:53:52;;;;;;;25.65;6.75;;;;;;;30.02;47.61;99659.25;129734;1093;114002;-68
2021/06/24 09:56:21;;;;;;;32.88;8.03;;;;;;;30.02;48.21;99657.25;129974;1092;22573;-69
2021/06/24 09:58:50;;;;;;;30.08;7.90;;;;;;;30.07;48.17;99658.92;129866;1093;114030;-68
2021/06/24 10:01:29;;;;;;;37.00;7.95;;;;;;;30.08;48.41;99658.53;130075;1093;22561;-69
2021/06/24 10:04:01;;;;;;;38.45;7.50;;;;;;;30.11;48.42;99648.53;130108;1093;23618;-69
2021/06/24 10:06:29;;;;;;;43.63;7.58;;;;;;;30.16;49.13;99642.53;130005;1093;113910;-68
2021/06/24 10:08:59;;;;;;;38.83;9.50;;;;;;;30.24;49.69;99644.23;130079;1093;22546;-69
2021/06/24 10:11:27;;;;;;;29.88;8.03;;;;;;;30.33;48.98;99647.53;129749;1092;114124;-69
2021/06/24 10:13:56;;;;;;;32.08;7.35;;;;;;;30.45;49.68;99638.80;129801;1092;22670;-69
2021/06/24 10:16:28;;;;;;;29.03;7.68;;;;;;;30.57;48.41;99638.55;130101;1093;22676;-69
2021/06/24 10:18:57;;;;;;;33.00;8.03;;;;;;;30.69;47.98;99631.00;129681;1092;114118;-69
2021/06/24 10:21:27;;;;;;;24.68;6.48;;;;;;;30.81;48.53;99625.05;130062;1093;23339;-70
2021/06/24 10:23:57;;;;;;;37.38;7.50;;;;;;;30.94;48.15;99621.52;129691;1092;113953;-69
2021/06/24 10:26:25;;;;;;;29.90;8.38;;;;;;;31.07;47.61;99619.18;129855;1093;23439;-69
2021/06/24 10:29:28;;;;;;;25.53;7.60;;;;;;;31.19;47.48;99627.31;129689;1093;114133;-69
2021/06/24 10:31:57;;;;;;;30.48;7.83;;;;;;;31.31;46.21;99623.34;129392;1095;23452;-68
2021/06/24 10:34:44;;;;;;;26.40;6.65;;;;;;;31.41;45.25;99622.61;129290;1096;22579;-69
2021/06/24 10:37:15;;;;;;;20.85;6.23;;;;;;;31.49;45.68;99626.25;129307;1095;113999;-69
2021/06/24 10:39:44;;;;;;;29.30;6.48;;;;;;;31.54;45.29;99628.69;129351;1096;22615;-69
2021/06/24 10:42:14;;;;;;;26.70;7.98;;;;;;;31.62;45.61;99621.88;129264;1096;113800;-69
2021/06/24 10:44:44;;;;;;;19.45;6.10;;;;;;;31.72;42.62;99621.15;129323;1096;22558;-70
2021/06/24 10:47:13;;;;;;;23.93;5.88;;;;;;;31.79;42.62;99615.52;129246;1095;114571;-70
2021/06/24 10:49:43;;;;;;;16.25;5.10;;;;;;;31.86;40.97;99612.73;129377;1096;22595;-70
2021/06/24 10:52:27;;;;;;;18.13;4.85;;;;;;;31.94;41.11;99611.53;129432;1096;22718;-69
2021/06/24 10:54:58;;;;;;;21.63;5.23;;;;;;;32.06;40.79;99603.89;129246;1096;113971;-70
2021/06/24 10:57:33;;;;;;;19.03;4.20;;;;;;;32.14;40.57;99600.70;129417;1096;22645;-75
2021/06/24 11:00:36;;;;;;;23.73;4.43;;;;;;;32.24;38.31;99597.10;129283;1095;114603;-75
2021/06/24 11:03:14;;;;;;;13.18;4.75;;;;;;;32.36;38.33;99601.53;129421;1096;22564;-75
2021/06/24 11:05:42;;;;;;;16.53;4.50;;;;;;;32.44;38.25;99596.71;129185;1097;114029;-75
2021/06/24 11:08:27;;;;;;;17.95;4.40;;;;;;;32.49;38.27;99604.75;129780;1093;23346;-75
2021/06/24 11:11:20;;;;;;;16.45;4.55;;;;;;;32.56;38.34;99597.10;129754;1093;114867;-74
2021/06/24 11:14:01;;;;;;;20.00;4.88;;;;;;;32.66;37.97;99595.47;129810;1092;22559;-75
2021/06/24 11:16:29;;;;;;;17.15;4.75;;;;;;;32.71;37.13;99592.25;129957;1092;22654;-74
2021/06/24 11:19:16;;;;;;;12.50;4.08;;;;;;;32.74;38.23;99596.31;129746;1093;113959;-75
2021/06/24 11:21:48;;;;;;;13.45;4.40;;;;;;;32.76;36.96;99591.84;129842;1093;22606;-74
2021/06/24 11:24:18;;;;;;;16.73;4.53;;;;;;;32.78;36.01;99592.25;129812;1092;114003;-75
2021/06/24 11:26:50;;;;;;;19.03;3.80;;;;;;;32.80;36.31;99583.38;130033;1093;22574;-76
2021/06/24 11:29:43;;;;;;;21.70;5.60;;;;;;;32.83;35.90;99574.91;129843;1093;114171;-75